Kezdőlap
METAR-TAF:

METAR-TAF

Repülőterek :

Kirksville Regional Airport

Kirksville, Missouri, Amerikai Egyesült Államok

földrajzi szélesség: 40-05-50N, földrajzi hosszúság: 092-32-36W, magasság: 294 m

Jelenlegi meteorológiai megfigyelések

A jelentés 55 perccel ezelõtt készült, 17:55 UTC
Délkeleti szél 12 kt széllökések: 18 kt
Hőmérséklet 14°C
Páratartalom 55%
Légköri nyomás 1016 hPa
Látótávolság: 16.1 km
Derült ég

METAR: KIRK 011755Z AUTO 13012G18KT 10SM CLR 14/05 A3000 RMK AO2 SLP166 T01440050 10144 20022 58014

Idő: 13:50 (18:50 UTC)


TAF: hiányzik

Meteorológiai megfigyelések és előrejelzések több, mint 4000 repülőtéren (METAR és TAF jelentéseket).

A térképen piros és sárga pontok jelzik az elérhető meteorológiai állomásokat.

Mozgassa az egeret a pont fölött, hogy megjelenjen az állomás neve.

Azután kattintson az időjárási megfigyelések és előrejelzések megtekintéséhez.

A térkép megváltoztatása: kattintson a fekete keresztel jelölt zöld gombra ráközelítéshez, a vonallal jelölt zöld gombra távolításhoz, vagy a zöld nyilakra a szomszédos térképek eléréséhez.


METAR-TAF: